Terminal Aerodrome Forecast
Issued by NWS

Home | Current Version | Previous Version | Text Only | Print | Product List | Glossary On
Versions: 1 2 3 4 5 6 7 8 9 10 11 12
000
FTUS45 KABQ 181100
TAFSAF
TAF
KSAF 181140Z 1812/1912 13006KT P6SM SCT250
     FM181700 20013KT P6SM SCT250
     FM182200 21014G22KT P6SM SCT090 SCT150
     FM190200 20009KT P6SM BKN120
     FM190800 22010KT P6SM VCSH BKN050 OVC100=

USA.gov is the U.S. government's official web portal to all federal, state and local government web resources and services.